Terminal Aerodrome Forecast
Issued by NWS Cleveland, OH

Home | Current Version | Previous Version | Graphics & Text | Print | Product List | Glossary Off
Versions: 1 2 3 4 5 6 7 8 9 10 11 12 13 14 15 16 17 18

000
FTUS41 KCLE 301736
TAFTOL
TAF
KTOL 301736Z 3018/0118 23008KT P6SM -SHRA VCTS OVC050CB
     FM302200 28007KT P6SM VCTS SCT080CB
     FM010500 28007KT P6SM SCT015 OVC050
     FM010900 29006KT 4SM BR OVC015
     FM011500 29008KT P6SM OVC025=

USA.gov is the U.S. government's official web portal to all federal, state and local government web resources and services.